sensor_id;sensor_type;location;lat;lon;timestamp;pressure;altitude;pressure_sealevel;temperature;humidity
35519;BME280;21627;48.216;16.482;2023-11-21T00:01:27;99334.09;;;8.49;100.00
35519;BME280;21627;48.216;16.482;2023-11-21T00:03:55;99326.38;;;8.50;100.00
35519;BME280;21627;48.216;16.482;2023-11-21T00:06:22;99334.97;;;8.52;100.00
35519;BME280;21627;48.216;16.482;2023-11-21T00:08:49;99319.50;;;8.46;100.00
35519;BME280;21627;48.216;16.482;2023-11-21T00:11:16;99315.19;;;8.47;100.00
35519;BME280;21627;48.216;16.482;2023-11-21T00:13:43;99325.50;;;8.43;100.00
35519;BME280;21627;48.216;16.482;2023-11-21T00:16:10;99316.88;;;8.38;100.00
35519;BME280;21627;48.216;16.482;2023-11-21T00:18:38;99322.91;;;8.43;100.00
35519;BME280;21627;48.216;16.482;2023-11-21T00:21:05;99323.75;;;8.38;100.00
35519;BME280;21627;48.216;16.482;2023-11-21T00:23:32;99315.16;;;8.33;100.00
35519;BME280;21627;48.216;16.482;2023-11-21T00:25:59;99309.13;;;8.28;100.00
35519;BME280;21627;48.216;16.482;2023-11-21T00:28:26;99311.72;;;8.21;100.00
35519;BME280;21627;48.216;16.482;2023-11-21T00:30:54;99311.69;;;8.17;100.00
35519;BME280;21627;48.216;16.482;2023-11-21T00:33:21;99315.97;;;8.12;100.00
35519;BME280;21627;48.216;16.482;2023-11-21T00:35:48;99312.53;;;8.07;100.00
35519;BME280;21627;48.216;16.482;2023-11-21T00:38:15;99299.59;;;7.97;100.00
35519;BME280;21627;48.216;16.482;2023-11-21T00:40:42;99311.63;;;7.98;100.00
35519;BME280;21627;48.216;16.482;2023-11-21T00:43:09;99310.75;;;7.89;100.00
35519;BME280;21627;48.216;16.482;2023-11-21T00:45:36;99320.16;;;7.88;100.00
35519;BME280;21627;48.216;16.482;2023-11-21T00:48:03;99303.81;;;7.75;100.00
35519;BME280;21627;48.216;16.482;2023-11-21T00:50:31;99303.81;;;7.74;100.00
35519;BME280;21627;48.216;16.482;2023-11-21T00:52:59;99312.41;;;7.74;100.00
35519;BME280;21627;48.216;16.482;2023-11-21T00:55:26;99312.38;;;7.70;100.00
35519;BME280;21627;48.216;16.482;2023-11-21T00:57:54;99316.63;;;7.65;100.00
35519;BME280;21627;48.216;16.482;2023-11-21T01:00:21;99320.03;;;7.61;100.00
35519;BME280;21627;48.216;16.482;2023-11-21T01:02:50;99316.59;;;7.57;100.00
35519;BME280;21627;48.216;16.482;2023-11-21T01:05:17;99312.25;;;7.48;100.00
35519;BME280;21627;48.216;16.482;2023-11-21T01:07:44;99311.38;;;7.42;100.00
35519;BME280;21627;48.216;16.482;2023-11-21T01:10:12;99307.06;;;7.34;100.00
35519;BME280;21627;48.216;16.482;2023-11-21T01:12:39;99306.16;;;7.29;100.00
35519;BME280;21627;48.216;16.482;2023-11-21T01:15:07;99295.81;;;7.20;100.00
35519;BME280;21627;48.216;16.482;2023-11-21T01:17:35;99296.66;;;7.18;100.00
35519;BME280;21627;48.216;16.482;2023-11-21T01:20:03;99294.03;;;7.13;100.00
35519;BME280;21627;48.216;16.482;2023-11-21T01:22:33;99300.88;;;7.08;100.00
35519;BME280;21627;48.216;16.482;2023-11-21T01:25:00;99290.56;;;7.05;100.00
35519;BME280;21627;48.216;16.482;2023-11-21T01:27:27;99294.88;;;7.07;100.00
35519;BME280;21627;48.216;16.482;2023-11-21T01:29:54;99289.72;;;7.01;100.00
35519;BME280;21627;48.216;16.482;2023-11-21T01:32:22;99287.03;;;6.89;100.00
35519;BME280;21627;48.216;16.482;2023-11-21T01:34:50;99289.56;;;6.81;100.00
35519;BME280;21627;48.216;16.482;2023-11-21T01:37:18;99278.31;;;6.70;100.00
35519;BME280;21627;48.216;16.482;2023-11-21T01:39:45;99277.44;;;6.66;100.00
35519;BME280;21627;48.216;16.482;2023-11-21T01:42:32;99282.56;;;6.63;100.00
35519;BME280;21627;48.216;16.482;2023-11-21T01:45:02;99283.34;;;6.56;100.00
35519;BME280;21627;48.216;16.482;2023-11-21T01:47:33;99279.03;;;6.50;100.00
35519;BME280;21627;48.216;16.482;2023-11-21T01:50:03;99295.28;;;6.48;100.00
35519;BME280;21627;48.216;16.482;2023-11-21T01:52:37;99297.81;;;6.43;100.00
35519;BME280;21627;48.216;16.482;2023-11-21T01:55:07;99296.94;;;6.44;100.00
35519;BME280;21627;48.216;16.482;2023-11-21T01:57:38;99300.34;;;6.42;100.00
35519;BME280;21627;48.216;16.482;2023-11-21T02:00:06;99284.88;;;6.37;100.00
35519;BME280;21627;48.216;16.482;2023-11-21T02:02:46;99294.28;;;6.34;100.00
35519;BME280;21627;48.216;16.482;2023-11-21T02:05:17;99294.25;;;6.27;100.00
35519;BME280;21627;48.216;16.482;2023-11-21T02:07:46;99289.06;;;6.26;100.00
35519;BME280;21627;48.216;16.482;2023-11-21T02:10:17;99283.91;;;6.23;100.00
35519;BME280;21627;48.216;16.482;2023-11-21T02:12:50;99285.63;;;6.22;100.00
35519;BME280;21627;48.216;16.482;2023-11-21T02:15:18;99259.03;;;6.17;100.00
35519;BME280;21627;48.216;16.482;2023-11-21T02:17:49;99276.22;;;6.23;100.00
35519;BME280;21627;48.216;16.482;2023-11-21T02:20:22;99265.91;;;6.20;100.00
35519;BME280;21627;48.216;16.482;2023-11-21T02:22:57;99267.56;;;6.15;100.00
35519;BME280;21627;48.216;16.482;2023-11-21T02:25:32;99262.44;;;6.15;100.00
35519;BME280;21627;48.216;16.482;2023-11-21T02:28:03;99259.03;;;6.16;100.00
35519;BME280;21627;48.216;16.482;2023-11-21T02:30:30;99250.41;;;6.07;100.00
35519;BME280;21627;48.216;16.482;2023-11-21T02:33:00;99266.69;;;6.11;100.00
35519;BME280;21627;48.216;16.482;2023-11-21T02:35:28;99253.91;;;6.16;100.00
35519;BME280;21627;48.216;16.482;2023-11-21T02:37:59;99247.00;;;6.10;100.00
35519;BME280;21627;48.216;16.482;2023-11-21T02:40:26;99259.84;;;6.12;100.00
35519;BME280;21627;48.216;16.482;2023-11-21T02:42:54;99245.25;;;6.06;100.00
35519;BME280;21627;48.216;16.482;2023-11-21T02:45:21;99259.78;;;6.05;100.00
35519;BME280;21627;48.216;16.482;2023-11-21T02:47:49;99265.72;;;6.01;100.00
35519;BME280;21627;48.216;16.482;2023-11-21T02:50:16;99264.88;;;6.01;100.00
35519;BME280;21627;48.216;16.482;2023-11-21T02:52:46;99268.25;;;5.98;100.00
35519;BME280;21627;48.216;16.482;2023-11-21T02:55:14;99260.53;;;5.95;100.00
35519;BME280;21627;48.216;16.482;2023-11-21T02:57:41;99266.44;;;5.90;100.00
35519;BME280;21627;48.216;16.482;2023-11-21T03:00:09;99265.53;;;5.86;100.00
35519;BME280;21627;48.216;16.482;2023-11-21T03:02:43;99263.78;;;5.83;100.00
35519;BME280;21627;48.216;16.482;2023-11-21T03:05:11;99250.06;;;5.78;100.00
35519;BME280;21627;48.216;16.482;2023-11-21T03:07:39;99258.53;;;5.74;100.00
35519;BME280;21627;48.216;16.482;2023-11-21T03:10:10;99250.81;;;5.70;100.00
35519;BME280;21627;48.216;16.482;2023-11-21T03:12:39;99245.59;;;5.62;100.00
35519;BME280;21627;48.216;16.482;2023-11-21T03:15:07;99250.72;;;5.62;100.00
35519;BME280;21627;48.216;16.482;2023-11-21T03:17:35;99250.63;;;5.54;100.00
35519;BME280;21627;48.216;16.482;2023-11-21T03:20:04;99248.06;;;5.53;100.00
35519;BME280;21627;48.216;16.482;2023-11-21T03:22:32;99244.56;;;5.49;100.00
35519;BME280;21627;48.216;16.482;2023-11-21T03:25:00;99250.50;;;5.42;100.00
35519;BME280;21627;48.216;16.482;2023-11-21T03:27:27;99257.28;;;5.41;100.00
35519;BME280;21627;48.216;16.482;2023-11-21T03:29:54;99256.44;;;5.39;100.00
35519;BME280;21627;48.216;16.482;2023-11-21T03:32:22;99258.13;;;5.37;100.00
35519;BME280;21627;48.216;16.482;2023-11-21T03:34:56;99250.31;;;5.30;100.00
35519;BME280;21627;48.216;16.482;2023-11-21T03:37:24;99251.13;;;5.26;100.00
35519;BME280;21627;48.216;16.482;2023-11-21T03:39:56;99245.94;;;5.19;100.00
35519;BME280;21627;48.216;16.482;2023-11-21T03:42:24;99253.56;;;5.18;100.00
35519;BME280;21627;48.216;16.482;2023-11-21T03:44:54;99239.84;;;5.13;100.00
35519;BME280;21627;48.216;16.482;2023-11-21T03:47:21;99248.34;;;5.10;100.00
35519;BME280;21627;48.216;16.482;2023-11-21T03:49:49;99242.38;;;5.11;100.00
35519;BME280;21627;48.216;16.482;2023-11-21T03:52:16;99248.31;;;5.09;100.00
35519;BME280;21627;48.216;16.482;2023-11-21T03:54:43;99247.47;;;5.07;100.00
35519;BME280;21627;48.216;16.482;2023-11-21T03:57:12;99242.22;;;4.99;100.00
35519;BME280;21627;48.216;16.482;2023-11-21T03:59:43;99255.06;;;5.04;100.00
35519;BME280;21627;48.216;16.482;2023-11-21T04:02:10;99250.84;;;5.04;100.00
35519;BME280;21627;48.216;16.482;2023-11-21T04:04:37;99260.19;;;5.04;100.00
35519;BME280;21627;48.216;16.482;2023-11-21T04:07:05;99247.34;;;5.01;100.00
35519;BME280;21627;48.216;16.482;2023-11-21T04:09:32;99249.09;;;5.03;100.00
35519;BME280;21627;48.216;16.482;2023-11-21T04:11:59;99248.28;;;5.06;100.00
35519;BME280;21627;48.216;16.482;2023-11-21T04:14:27;99249.09;;;5.03;100.00
35519;BME280;21627;48.216;16.482;2023-11-21T04:16:54;99250.78;;;5.01;100.00
35519;BME280;21627;48.216;16.482;2023-11-21T04:19:22;99254.16;;;4.98;100.00
35519;BME280;21627;48.216;16.482;2023-11-21T04:21:49;99249.00;;;4.95;100.00
35519;BME280;21627;48.216;16.482;2023-11-21T04:24:16;99244.72;;;4.94;100.00
35519;BME280;21627;48.216;16.482;2023-11-21T04:26:44;99246.34;;;4.91;100.00
35519;BME280;21627;48.216;16.482;2023-11-21T04:29:11;99250.66;;;4.92;100.00
35519;BME280;21627;48.216;16.482;2023-11-21T04:31:38;99233.50;;;4.88;100.00
35519;BME280;21627;48.216;16.482;2023-11-21T04:34:06;99242.13;;;4.91;100.00
35519;BME280;21627;48.216;16.482;2023-11-21T04:36:33;99242.13;;;4.93;100.00
35519;BME280;21627;48.216;16.482;2023-11-21T04:39:01;99243.81;;;4.91;100.00
35519;BME280;21627;48.216;16.482;2023-11-21T04:41:29;99242.09;;;4.90;100.00
35519;BME280;21627;48.216;16.482;2023-11-21T04:43:58;99240.34;;;4.89;100.00
35519;BME280;21627;48.216;16.482;2023-11-21T04:46:28;99245.47;;;4.89;100.00
35519;BME280;21627;48.216;16.482;2023-11-21T04:48:55;99244.56;;;4.85;100.00
35519;BME280;21627;48.216;16.482;2023-11-21T04:51:22;99252.34;;;4.90;100.00
35519;BME280;21627;48.216;16.482;2023-11-21T04:53:49;99244.63;;;4.88;100.00
35519;BME280;21627;48.216;16.482;2023-11-21T04:56:16;99249.75;;;4.88;100.00
35519;BME280;21627;48.216;16.482;2023-11-21T04:58:43;99246.34;;;4.91;100.00
35519;BME280;21627;48.216;16.482;2023-11-21T05:01:11;99248.91;;;4.91;100.00
35519;BME280;21627;48.216;16.482;2023-11-21T05:03:39;99251.47;;;4.89;100.00
35519;BME280;21627;48.216;16.482;2023-11-21T05:06:09;99246.28;;;4.86;100.00
35519;BME280;21627;48.216;16.482;2023-11-21T05:08:36;99264.25;;;4.88;100.00
35519;BME280;21627;48.216;16.482;2023-11-21T05:11:04;99261.63;;;4.83;100.00
35519;BME280;21627;48.216;16.482;2023-11-21T05:13:31;99264.13;;;4.80;100.00
35519;BME280;21627;48.216;16.482;2023-11-21T05:16:00;99258.97;;;4.78;100.00
35519;BME280;21627;48.216;16.482;2023-11-21T05:18:30;99263.25;;;4.76;100.00
35519;BME280;21627;48.216;16.482;2023-11-21T05:20:58;99259.75;;;4.73;100.00
35519;BME280;21627;48.216;16.482;2023-11-21T05:23:25;99254.66;;;4.74;100.00
35519;BME280;21627;48.216;16.482;2023-11-21T05:25:52;99259.78;;;4.76;100.00
35519;BME280;21627;48.216;16.482;2023-11-21T05:28:19;99260.72;;;4.80;100.00
35519;BME280;21627;48.216;16.482;2023-11-21T05:30:46;99258.97;;;4.78;100.00
35519;BME280;21627;48.216;16.482;2023-11-21T05:33:13;99260.75;;;4.83;100.00
35519;BME280;21627;48.216;16.482;2023-11-21T05:35:41;99265.91;;;4.84;100.00
35519;BME280;21627;48.216;16.482;2023-11-21T05:38:08;99270.19;;;4.85;100.00
35519;BME280;21627;48.216;16.482;2023-11-21T05:40:35;99276.13;;;4.83;100.00
35519;BME280;21627;48.216;16.482;2023-11-21T05:43:04;99288.16;;;4.88;100.00
35519;BME280;21627;48.216;16.482;2023-11-21T05:45:32;99290.78;;;4.91;100.00
35519;BME280;21627;48.216;16.482;2023-11-21T05:47:59;99280.47;;;4.88;100.00
35519;BME280;21627;48.216;16.482;2023-11-21T05:50:26;99295.97;;;4.96;100.00
35519;BME280;21627;48.216;16.482;2023-11-21T05:52:55;99297.66;;;4.95;100.00
35519;BME280;21627;48.216;16.482;2023-11-21T05:55:22;99284.75;;;4.88;100.00
35519;BME280;21627;48.216;16.482;2023-11-21T05:57:52;99295.06;;;4.92;100.00
35519;BME280;21627;48.216;16.482;2023-11-21T06:00:20;99306.22;;;4.94;100.00
35519;BME280;21627;48.216;16.482;2023-11-21T06:02:53;99307.91;;;4.95;100.00
35519;BME280;21627;48.216;16.482;2023-11-21T06:05:24;99311.22;;;4.88;100.00
35519;BME280;21627;48.216;16.482;2023-11-21T06:07:55;99313.78;;;4.87;100.00
35519;BME280;21627;48.216;16.482;2023-11-21T06:10:25;99318.91;;;4.88;100.00
35519;BME280;21627;48.216;16.482;2023-11-21T06:12:53;99313.69;;;4.84;100.00
35519;BME280;21627;48.216;16.482;2023-11-21T06:15:20;99329.97;;;4.84;100.00
35519;BME280;21627;48.216;16.482;2023-11-21T06:17:50;99332.56;;;4.87;100.00
35519;BME280;21627;48.216;16.482;2023-11-21T06:20:21;99330.00;;;4.89;100.00
35519;BME280;21627;48.216;16.482;2023-11-21T06:22:50;99330.91;;;4.91;100.00
35519;BME280;21627;48.216;16.482;2023-11-21T06:25:18;99337.75;;;4.92;100.00
35519;BME280;21627;48.216;16.482;2023-11-21T06:27:47;99347.19;;;4.96;100.00
35519;BME280;21627;48.216;16.482;2023-11-21T06:30:15;99342.13;;;4.97;100.00
35519;BME280;21627;48.216;16.482;2023-11-21T06:32:43;99347.28;;;5.01;100.00
35519;BME280;21627;48.216;16.482;2023-11-21T06:35:13;99345.59;;;5.03;100.00
35519;BME280;21627;48.216;16.482;2023-11-21T06:37:43;99354.31;;;5.14;100.00
35519;BME280;21627;48.216;16.482;2023-11-21T06:40:18;99352.72;;;5.20;100.00
35519;BME280;21627;48.216;16.482;2023-11-21T06:42:46;99355.31;;;5.22;100.00
35519;BME280;21627;48.216;16.482;2023-11-21T06:45:15;99358.91;;;5.35;100.00
35519;BME280;21627;48.216;16.482;2023-11-21T06:47:42;99358.13;;;5.40;100.00
35519;BME280;21627;48.216;16.482;2023-11-21T06:50:10;99356.47;;;5.44;100.00
35519;BME280;21627;48.216;16.482;2023-11-21T06:52:37;99353.03;;;5.43;100.00
35519;BME280;21627;48.216;16.482;2023-11-21T06:55:06;99356.59;;;5.53;100.00
35519;BME280;21627;48.216;16.482;2023-11-21T06:57:36;99359.28;;;5.59;100.00
35519;BME280;21627;48.216;16.482;2023-11-21T07:00:04;99363.56;;;5.63;100.00
35519;BME280;21627;48.216;16.482;2023-11-21T07:02:32;99365.34;;;5.68;100.00
35519;BME280;21627;48.216;16.482;2023-11-21T07:04:59;99366.25;;;5.71;100.00
35519;BME280;21627;48.216;16.482;2023-11-21T07:07:27;99372.28;;;5.76;100.00
35519;BME280;21627;48.216;16.482;2023-11-21T07:09:55;99362.91;;;5.78;100.00
35519;BME280;21627;48.216;16.482;2023-11-21T07:12:22;99364.69;;;5.82;100.00
35519;BME280;21627;48.216;16.482;2023-11-21T07:14:50;99367.28;;;5.85;100.00
35519;BME280;21627;48.216;16.482;2023-11-21T07:17:17;99375.03;;;5.89;100.00
35519;BME280;21627;48.216;16.482;2023-11-21T07:19:45;99370.81;;;5.92;100.00
35519;BME280;21627;48.216;16.482;2023-11-21T07:22:12;99366.56;;;5.94;100.00
35519;BME280;21627;48.216;16.482;2023-11-21T07:24:41;99376.06;;;6.01;100.00
35519;BME280;21627;48.216;16.482;2023-11-21T07:27:08;99379.56;;;6.06;100.00
35519;BME280;21627;48.216;16.482;2023-11-21T07:29:35;99383.84;;;6.09;100.00
35519;BME280;21627;48.216;16.482;2023-11-21T07:32:02;99379.63;;;6.14;100.00
35519;BME280;21627;48.216;16.482;2023-11-21T07:34:29;99377.09;;;6.16;100.00
35519;BME280;21627;48.216;16.482;2023-11-21T07:36:57;99378.06;;;6.22;100.00
35519;BME280;21627;48.216;16.482;2023-11-21T07:39:24;99371.19;;;6.24;100.00
35519;BME280;21627;48.216;16.482;2023-11-21T07:41:51;99383.25;;;6.30;100.00
35519;BME280;21627;48.216;16.482;2023-11-21T07:44:18;99375.56;;;6.30;100.00
35519;BME280;21627;48.216;16.482;2023-11-21T07:46:47;99380.72;;;6.35;100.00
35519;BME280;21627;48.216;16.482;2023-11-21T07:49:14;99383.38;;;6.42;100.00
35519;BME280;21627;48.216;16.482;2023-11-21T07:51:47;99379.97;;;6.43;100.00
35519;BME280;21627;48.216;16.482;2023-11-21T07:54:15;99380.03;;;6.49;100.00
35519;BME280;21627;48.216;16.482;2023-11-21T07:56:43;99388.66;;;6.56;100.00
35519;BME280;21627;48.216;16.482;2023-11-21T07:59:10;99392.19;;;6.63;100.00
35519;BME280;21627;48.216;16.482;2023-11-21T08:01:38;99391.34;;;6.67;100.00
35519;BME280;21627;48.216;16.482;2023-11-21T08:04:07;99386.25;;;6.71;100.00
35519;BME280;21627;48.216;16.482;2023-11-21T08:06:35;99399.16;;;6.79;100.00
35519;BME280;21627;48.216;16.482;2023-11-21T08:09:02;99397.53;;;6.86;100.00
35519;BME280;21627;48.216;16.482;2023-11-21T08:11:29;99396.75;;;6.93;100.00
35519;BME280;21627;48.216;16.482;2023-11-21T08:13:58;99389.94;;;7.03;100.00
35519;BME280;21627;48.216;16.482;2023-11-21T08:16:26;99391.75;;;7.11;100.00
35519;BME280;21627;48.216;16.482;2023-11-21T08:18:54;99389.22;;;7.19;100.00
35519;BME280;21627;48.216;16.482;2023-11-21T08:21:22;99389.31;;;7.28;100.00
35519;BME280;21627;48.216;16.482;2023-11-21T08:23:51;99393.66;;;7.40;100.00
35519;BME280;21627;48.216;16.482;2023-11-21T08:26:22;99393.72;;;7.48;100.00
35519;BME280;21627;48.216;16.482;2023-11-21T08:28:49;99398.91;;;7.52;100.00
35519;BME280;21627;48.216;16.482;2023-11-21T08:31:25;99407.56;;;7.64;100.00
35519;BME280;21627;48.216;16.482;2023-11-21T08:33:52;99402.44;;;7.70;100.00
35519;BME280;21627;48.216;16.482;2023-11-21T08:36:23;99399.91;;;7.74;100.00
35519;BME280;21627;48.216;16.482;2023-11-21T08:38:51;99402.47;;;7.77;100.00
35519;BME280;21627;48.216;16.482;2023-11-21T08:41:19;99411.09;;;7.86;100.00
35519;BME280;21627;48.216;16.482;2023-11-21T08:43:50;99411.13;;;7.89;100.00
35519;BME280;21627;48.216;16.482;2023-11-21T08:46:18;99409.44;;;7.94;100.00
35519;BME280;21627;48.216;16.482;2023-11-21T08:48:46;99404.31;;;7.97;100.00
35519;BME280;21627;48.216;16.482;2023-11-21T08:51:13;99404.31;;;8.00;100.00
35519;BME280;21627;48.216;16.482;2023-11-21T08:53:41;99400.88;;;7.99;100.00
35519;BME280;21627;48.216;16.482;2023-11-21T08:56:13;99406.03;;;8.06;100.00
35519;BME280;21627;48.216;16.482;2023-11-21T08:58:41;99397.44;;;8.03;100.00
35519;BME280;21627;48.216;16.482;2023-11-21T09:01:08;99402.63;;;8.11;100.00
35519;BME280;21627;48.216;16.482;2023-11-21T09:03:36;99400.94;;;8.15;100.00
35519;BME280;21627;48.216;16.482;2023-11-21T09:06:03;99401.84;;;8.24;100.00
35519;BME280;21627;48.216;16.482;2023-11-21T09:08:31;99397.56;;;8.30;100.00
35519;BME280;21627;48.216;16.482;2023-11-21T09:10:59;99401.88;;;8.35;100.00
35519;BME280;21627;48.216;16.482;2023-11-21T09:13:26;99395.94;;;8.42;100.00
35519;BME280;21627;48.216;16.482;2023-11-21T09:15:53;99400.22;;;8.48;100.00
35519;BME280;21627;48.216;16.482;2023-11-21T09:18:20;99397.66;;;8.53;100.00
35519;BME280;21627;48.216;16.482;2023-11-21T09:20:48;99397.69;;;8.57;100.00
35519;BME280;21627;48.216;16.482;2023-11-21T09:23:15;99396.81;;;8.61;100.00
35519;BME280;21627;48.216;16.482;2023-11-21T09:25:42;99401.13;;;8.61;100.00
35519;BME280;21627;48.216;16.482;2023-11-21T09:28:13;99392.53;;;8.62;100.00
35519;BME280;21627;48.216;16.482;2023-11-21T09:30:40;99399.41;;;8.69;100.00
35519;BME280;21627;48.216;16.482;2023-11-21T09:33:07;99398.59;;;8.75;100.00
35519;BME280;21627;48.216;16.482;2023-11-21T09:35:38;99390.84;;;8.78;100.00
35519;BME280;21627;48.216;16.482;2023-11-21T09:38:05;99396.00;;;8.88;100.00
35519;BME280;21627;48.216;16.482;2023-11-21T09:40:37;99384.00;;;8.95;100.00
35519;BME280;21627;48.216;16.482;2023-11-21T09:43:18;99388.28;;;9.04;100.00
35519;BME280;21627;48.216;16.482;2023-11-21T09:45:47;99395.16;;;9.09;100.00
35519;BME280;21627;48.216;16.482;2023-11-21T09:48:15;99383.97;;;9.17;100.00
35519;BME280;21627;48.216;16.482;2023-11-21T09:50:44;99384.84;;;9.20;100.00
35519;BME280;21627;48.216;16.482;2023-11-21T09:53:20;99383.13;;;9.19;100.00
35519;BME280;21627;48.216;16.482;2023-11-21T09:55:52;99385.69;;;9.24;100.00
35519;BME280;21627;48.216;16.482;2023-11-21T09:58:21;99385.69;;;9.28;100.00
35519;BME280;21627;48.216;16.482;2023-11-21T10:00:55;99386.56;;;9.34;100.00
35519;BME280;21627;48.216;16.482;2023-11-21T10:03:24;99382.25;;;9.37;100.00
35519;BME280;21627;48.216;16.482;2023-11-21T10:05:54;99376.22;;;9.46;100.00
35519;BME280;21627;48.216;16.482;2023-11-21T10:08:23;99374.50;;;9.56;100.00
35519;BME280;21627;48.216;16.482;2023-11-21T10:10:53;99372.75;;;9.68;100.00
35519;BME280;21627;48.216;16.482;2023-11-21T10:13:21;99376.09;;;9.87;100.00
35519;BME280;21627;48.216;16.482;2023-11-21T10:15:51;99373.50;;;9.92;100.00
35519;BME280;21627;48.216;16.482;2023-11-21T10:18:20;99376.06;;;10.04;100.00
35519;BME280;21627;48.216;16.482;2023-11-21T10:20:50;99361.38;;;10.15;100.00
35519;BME280;21627;48.216;16.482;2023-11-21T10:23:22;99365.59;;;10.38;100.00
35519;BME280;21627;48.216;16.482;2023-11-21T10:25:54;99362.03;;;10.57;100.00
35519;BME280;21627;48.216;16.482;2023-11-21T10:28:24;99358.53;;;10.66;100.00
35519;BME280;21627;48.216;16.482;2023-11-21T10:30:51;99361.91;;;10.76;100.00
35519;BME280;21627;48.216;16.482;2023-11-21T10:33:27;99355.84;;;10.81;100.00
35519;BME280;21627;48.216;16.482;2023-11-21T10:35:56;99351.41;;;10.96;100.00
35519;BME280;21627;48.216;16.482;2023-11-21T10:38:23;99353.03;;;11.06;100.00
35519;BME280;21627;48.216;16.482;2023-11-21T10:40:52;99353.94;;;11.07;100.00
35519;BME280;21627;48.216;16.482;2023-11-21T10:43:19;99365.97;;;11.08;100.00
35519;BME280;21627;48.216;16.482;2023-11-21T10:45:47;99353.91;;;11.08;100.00
35519;BME280;21627;48.216;16.482;2023-11-21T10:48:15;99355.56;;;11.17;100.00
35519;BME280;21627;48.216;16.482;2023-11-21T10:50:47;99351.16;;;11.25;100.00
35519;BME280;21627;48.216;16.482;2023-11-21T10:53:14;99354.59;;;11.27;100.00
35519;BME280;21627;48.216;16.482;2023-11-21T10:55:42;99356.38;;;11.20;100.00
35519;BME280;21627;48.216;16.482;2023-11-21T10:58:14;99363.19;;;11.31;100.00
35519;BME280;21627;48.216;16.482;2023-11-21T11:00:41;99351.22;;;11.19;100.00
35519;BME280;21627;48.216;16.482;2023-11-21T11:03:12;99359.88;;;11.15;100.00
35519;BME280;21627;48.216;16.482;2023-11-21T11:05:46;99352.09;;;11.19;100.00
35519;BME280;21627;48.216;16.482;2023-11-21T11:08:21;99348.63;;;11.22;100.00
35519;BME280;21627;48.216;16.482;2023-11-21T11:10:55;99343.44;;;11.20;100.00
35519;BME280;21627;48.216;16.482;2023-11-21T11:13:22;99338.16;;;11.31;100.00
35519;BME280;21627;48.216;16.482;2023-11-21T11:15:51;99350.25;;;11.31;100.00
35519;BME280;21627;48.216;16.482;2023-11-21T11:18:26;99351.97;;;11.29;100.00
35519;BME280;21627;48.216;16.482;2023-11-21T11:20:54;99346.03;;;11.22;100.00
35519;BME280;21627;48.216;16.482;2023-11-21T11:36:03;99344.44;;;11.07;100.00
35519;BME280;21627;48.216;16.482;2023-11-21T11:38:34;99328.06;;;11.03;100.00
35519;BME280;21627;48.216;16.482;2023-11-21T11:41:05;99333.22;;;11.07;100.00
35519;BME280;21627;48.216;16.482;2023-11-21T11:43:32;99330.66;;;11.07;100.00
35519;BME280;21627;48.216;16.482;2023-11-21T11:46:03;99336.53;;;11.22;100.00
35519;BME280;21627;48.216;16.482;2023-11-21T11:48:38;99344.22;;;11.29;100.00
35519;BME280;21627;48.216;16.482;2023-11-21T11:51:14;99339.97;;;11.23;100.00
35519;BME280;21627;48.216;16.482;2023-11-21T11:53:46;99347.72;;;11.23;100.00
35519;BME280;21627;48.216;16.482;2023-11-21T11:56:31;99332.28;;;11.15;100.00
35519;BME280;21627;48.216;16.482;2023-11-21T11:59:03;99343.47;;;11.16;100.00
35519;BME280;21627;48.216;16.482;2023-11-21T12:01:33;99345.25;;;11.12;100.00
35519;BME280;21627;48.216;16.482;2023-11-21T12:06:53;99341.84;;;11.07;100.00
35519;BME280;21627;48.216;16.482;2023-11-21T12:09:24;99335.84;;;11.02;100.00
35519;BME280;21627;48.216;16.482;2023-11-21T12:11:51;99337.53;;;11.06;100.00
35519;BME280;21627;48.216;16.482;2023-11-21T12:14:18;99345.22;;;11.15;100.00
35519;BME280;21627;48.216;16.482;2023-11-21T12:16:45;99349.44;;;11.25;100.00
35519;BME280;21627;48.216;16.482;2023-11-21T12:19:13;99352.09;;;11.19;100.00
35519;BME280;21627;48.216;16.482;2023-11-21T12:21:40;99350.38;;;11.17;100.00
35519;BME280;21627;48.216;16.482;2023-11-21T12:24:11;99351.31;;;11.10;100.00
35519;BME280;21627;48.216;16.482;2023-11-21T12:26:42;99346.13;;;11.10;100.00
35519;BME280;21627;48.216;16.482;2023-11-21T12:29:10;99350.41;;;11.12;100.00
35519;BME280;21627;48.216;16.482;2023-11-21T12:31:37;99348.66;;;11.19;100.00
35519;BME280;21627;48.216;16.482;2023-11-21T12:34:05;99354.56;;;11.30;100.00
35519;BME280;21627;48.216;16.482;2023-11-21T12:36:34;99344.22;;;11.32;100.00
35519;BME280;21627;48.216;16.482;2023-11-21T12:39:02;99336.53;;;11.21;100.00
35519;BME280;21627;48.216;16.482;2023-11-21T12:41:30;99334.81;;;11.21;100.00
35519;BME280;21627;48.216;16.482;2023-11-21T12:43:58;99343.50;;;11.14;100.00
35519;BME280;21627;48.216;16.482;2023-11-21T12:46:25;99340.91;;;11.13;100.00
35519;BME280;21627;48.216;16.482;2023-11-21T12:48:57;99344.41;;;11.10;100.00
35519;BME280;21627;48.216;16.482;2023-11-21T12:51:25;99343.50;;;11.11;100.00
35519;BME280;21627;48.216;16.482;2023-11-21T12:53:52;99353.00;;;11.14;100.00
35519;BME280;21627;48.216;16.482;2023-11-21T12:56:21;99342.69;;;11.08;100.00
35519;BME280;21627;48.216;16.482;2023-11-21T12:58:50;99340.97;;;11.08;100.00
35519;BME280;21627;48.216;16.482;2023-11-21T13:01:21;99344.38;;;11.15;100.00
35519;BME280;21627;48.216;16.482;2023-11-21T13:03:53;99344.41;;;11.10;100.00
35519;BME280;21627;48.216;16.482;2023-11-21T13:06:20;99347.91;;;11.04;100.00
35519;BME280;21627;48.216;16.482;2023-11-21T13:08:52;99346.19;;;11.00;100.00
35519;BME280;21627;48.216;16.482;2023-11-21T13:11:19;99348.66;;;11.16;100.00